createdAt,value
2022-09-28T21:29:28.896Z,86.18
2022-09-28T21:31:56.929Z,79.84
2022-09-28T21:34:25.448Z,75.95
2022-09-28T21:36:52.806Z,72.23
2022-09-28T21:39:20.403Z,69.29
2022-09-28T21:41:47.510Z,68.57
2022-09-28T21:44:14.731Z,68.19
2022-09-28T21:46:42.295Z,68.41
2022-09-28T21:49:11.009Z,68.35
2022-09-28T21:51:38.362Z,67.28
2022-09-28T21:54:05.822Z,66.28
2022-09-28T21:56:32.883Z,65.77
2022-09-28T21:59:01.488Z,65.80
2022-09-28T22:01:29.495Z,66.00
2022-09-28T22:03:57.875Z,66.22
2022-09-28T22:06:29.762Z,65.35
2022-09-28T22:08:57.630Z,64.85
2022-09-28T22:11:27.375Z,64.88
2022-09-28T22:13:57.357Z,65.18
2022-09-28T22:16:27.758Z,65.13
2022-09-28T22:18:54.931Z,65.53
2022-09-28T22:21:27.647Z,65.00
2022-09-28T22:23:58.398Z,64.31
2022-09-28T22:26:26.422Z,63.99
2022-09-28T22:28:59.222Z,64.50
2022-09-28T22:31:32.288Z,65.04
2022-09-28T22:33:59.847Z,65.20
2022-09-28T22:36:27.100Z,64.05
2022-09-28T22:38:55.255Z,63.70
2022-09-28T22:41:23.549Z,63.57
2022-09-28T22:43:52.443Z,63.38
2022-09-28T22:46:22.479Z,63.91
2022-09-28T22:48:57.497Z,64.66
2022-09-28T22:51:26.586Z,64.74
2022-09-28T22:53:53.634Z,64.48
2022-09-28T22:56:20.786Z,63.65
2022-09-28T22:58:48.343Z,63.46
2022-09-28T23:01:17.541Z,63.63
2022-09-28T23:03:45.203Z,63.68
2022-09-28T23:06:16.229Z,64.09
2022-09-28T23:08:44.783Z,64.31
2022-09-28T23:11:12.080Z,63.54
2022-09-28T23:13:39.640Z,62.92
2022-09-28T23:16:15.830Z,62.74
2022-09-28T23:18:43.057Z,62.78
2022-09-28T23:21:15.312Z,62.86
2022-09-28T23:23:47.288Z,63.38
2022-09-28T23:26:23.447Z,63.67
2022-09-28T23:28:51.110Z,63.26
2022-09-28T23:31:30.112Z,62.39
2022-09-28T23:34:02.821Z,62.28
2022-09-28T23:36:30.751Z,62.34
2022-09-28T23:38:58.346Z,62.40
2022-09-28T23:41:25.828Z,63.05
2022-09-28T23:43:52.856Z,63.51
2022-09-28T23:46:21.175Z,63.20
2022-09-28T23:48:49.812Z,62.44
2022-09-28T23:51:17.678Z,61.99
2022-09-28T23:53:45.712Z,62.18
2022-09-28T23:56:14.552Z,62.25
2022-09-28T23:58:41.762Z,62.79
